sensor_id;sensor_type;location;lat;lon;timestamp;pressure;altitude;pressure_sealevel;temperature;humidity
61026;BME280;46911;32.650;-16.902;2023-12-29T00:01:57;101916.94;;;16.79;41.56
61026;BME280;46911;32.650;-16.902;2023-12-29T00:04:02;101907.22;;;16.89;42.14
61026;BME280;46911;32.650;-16.902;2023-12-29T00:06:03;101906.81;;;16.82;42.30
61026;BME280;46911;32.650;-16.902;2023-12-29T00:08:04;101902.50;;;16.80;42.90
61026;BME280;46911;32.650;-16.902;2023-12-29T00:10:06;101908.19;;;16.88;43.18
61026;BME280;46911;32.650;-16.902;2023-12-29T00:12:10;101891.81;;;16.78;43.20
61026;BME280;46911;32.650;-16.902;2023-12-29T00:14:15;101888.66;;;16.73;43.40
61026;BME280;46911;32.650;-16.902;2023-12-29T00:16:16;101898.09;;;16.79;43.00
61026;BME280;46911;32.650;-16.902;2023-12-29T00:18:17;101897.00;;;16.81;42.00
61026;BME280;46911;32.650;-16.902;2023-12-29T00:20:18;101892.34;;;16.83;42.18
61026;BME280;46911;32.650;-16.902;2023-12-29T00:22:19;101890.97;;;16.78;42.03
61026;BME280;46911;32.650;-16.902;2023-12-29T00:24:20;101892.69;;;16.79;41.59
61026;BME280;46911;32.650;-16.902;2023-12-29T00:26:23;101903.09;;;16.72;41.78
61026;BME280;46911;32.650;-16.902;2023-12-29T00:28:32;101897.06;;;16.68;41.52
61026;BME280;46911;32.650;-16.902;2023-12-29T00:30:34;101880.38;;;16.63;41.77
61026;BME280;46911;32.650;-16.902;2023-12-29T00:32:44;101898.91;;;16.68;42.09
61026;BME280;46911;32.650;-16.902;2023-12-29T00:34:51;101895.34;;;16.67;42.98
61026;BME280;46911;32.650;-16.902;2023-12-29T00:36:52;101889.53;;;16.61;43.33
61026;BME280;46911;32.650;-16.902;2023-12-29T00:38:56;101881.59;;;16.59;43.90
61026;BME280;46911;32.650;-16.902;2023-12-29T00:40:59;101873.50;;;16.59;44.48
61026;BME280;46911;32.650;-16.902;2023-12-29T00:43:01;101880.09;;;16.55;44.86
61026;BME280;46911;32.650;-16.902;2023-12-29T00:45:07;101871.50;;;16.50;44.78
61026;BME280;46911;32.650;-16.902;2023-12-29T00:47:08;101851.13;;;16.34;44.89
61026;BME280;46911;32.650;-16.902;2023-12-29T00:49:09;101871.75;;;16.47;45.58
61026;BME280;46911;32.650;-16.902;2023-12-29T00:51:12;101865.25;;;16.49;46.25
61026;BME280;46911;32.650;-16.902;2023-12-29T00:53:13;101861.81;;;16.47;46.46
61026;BME280;46911;32.650;-16.902;2023-12-29T00:55:17;101867.19;;;16.47;46.03
61026;BME280;46911;32.650;-16.902;2023-12-29T00:57:20;101836.78;;;16.34;45.11
61026;BME280;46911;32.650;-16.902;2023-12-29T00:59:24;101843.56;;;16.39;45.15
61026;BME280;46911;32.650;-16.902;2023-12-29T01:01:25;101842.91;;;16.36;45.19
61026;BME280;46911;32.650;-16.902;2023-12-29T01:03:26;101854.22;;;16.41;44.93
61026;BME280;46911;32.650;-16.902;2023-12-29T01:05:30;101850.31;;;16.45;45.21
61026;BME280;46911;32.650;-16.902;2023-12-29T01:07:31;101856.09;;;16.52;44.90
61026;BME280;46911;32.650;-16.902;2023-12-29T01:09:38;101857.69;;;16.54;44.89
61026;BME280;46911;32.650;-16.902;2023-12-29T01:11:40;101853.44;;;16.63;44.59
61026;BME280;46911;32.650;-16.902;2023-12-29T01:13:46;101846.84;;;16.67;44.28
61026;BME280;46911;32.650;-16.902;2023-12-29T01:15:47;101849.84;;;16.76;44.45
61026;BME280;46911;32.650;-16.902;2023-12-29T01:17:50;101846.78;;;16.80;44.15
61026;BME280;46911;32.650;-16.902;2023-12-29T01:19:51;101843.41;;;16.89;43.92
61026;BME280;46911;32.650;-16.902;2023-12-29T01:21:52;101853.34;;;17.00;43.70
61026;BME280;46911;32.650;-16.902;2023-12-29T01:23:55;101854.00;;;17.04;43.08
61026;BME280;46911;32.650;-16.902;2023-12-29T01:25:56;101841.72;;;17.00;42.59
61026;BME280;46911;32.650;-16.902;2023-12-29T01:27:57;101847.97;;;17.00;41.88
61026;BME280;46911;32.650;-16.902;2023-12-29T01:30:00;101837.66;;;16.94;41.59
61026;BME280;46911;32.650;-16.902;2023-12-29T01:32:03;101842.44;;;16.90;42.00
61026;BME280;46911;32.650;-16.902;2023-12-29T01:34:08;101832.84;;;16.86;41.50
61026;BME280;46911;32.650;-16.902;2023-12-29T01:36:17;101820.28;;;16.74;41.43
61026;BME280;46911;32.650;-16.902;2023-12-29T01:38:23;101831.00;;;16.87;41.83
61026;BME280;46911;32.650;-16.902;2023-12-29T01:40:26;101829.25;;;16.86;42.10
61026;BME280;46911;32.650;-16.902;2023-12-29T01:42:27;101830.78;;;16.90;41.86
61026;BME280;46911;32.650;-16.902;2023-12-29T01:44:28;101826.28;;;16.90;41.41
61026;BME280;46911;32.650;-16.902;2023-12-29T01:46:34;101819.16;;;16.89;40.53
61026;BME280;46911;32.650;-16.902;2023-12-29T01:48:35;101824.28;;;16.93;40.12
61026;BME280;46911;32.650;-16.902;2023-12-29T01:50:39;101803.41;;;16.83;39.85
61026;BME280;46911;32.650;-16.902;2023-12-29T01:52:48;101817.22;;;16.92;39.47
61026;BME280;46911;32.650;-16.902;2023-12-29T01:54:55;101807.28;;;16.92;38.84
61026;BME280;46911;32.650;-16.902;2023-12-29T01:57:00;101797.69;;;16.88;38.85
61026;BME280;46911;32.650;-16.902;2023-12-29T01:59:01;101802.84;;;16.91;39.06
61026;BME280;46911;32.650;-16.902;2023-12-29T02:01:06;101759.53;;;16.59;39.38
61026;BME280;46911;32.650;-16.902;2023-12-29T02:03:10;101815.53;;;16.78;39.59
61026;BME280;46911;32.650;-16.902;2023-12-29T02:05:14;101810.38;;;16.74;39.74
61026;BME280;46911;32.650;-16.902;2023-12-29T02:07:16;101791.47;;;16.63;39.73
61026;BME280;46911;32.650;-16.902;2023-12-29T02:09:19;101787.44;;;16.57;39.77
61026;BME280;46911;32.650;-16.902;2023-12-29T02:11:23;101803.97;;;16.64;39.74
61026;BME280;46911;32.650;-16.902;2023-12-29T02:13:24;101802.03;;;16.66;39.16
61026;BME280;46911;32.650;-16.902;2023-12-29T02:15:25;101804.34;;;16.60;39.79
61026;BME280;46911;32.650;-16.902;2023-12-29T02:17:28;101800.16;;;16.55;39.91
61026;BME280;46911;32.650;-16.902;2023-12-29T02:20:06;101806.16;;;16.59;40.47
61026;BME280;46911;32.650;-16.902;2023-12-29T02:22:00;101811.53;;;16.59;40.34
61026;BME280;46911;32.650;-16.902;2023-12-29T02:24:01;101810.31;;;16.52;40.16
61026;BME280;46911;32.650;-16.902;2023-12-29T02:26:11;101820.38;;;16.61;42.23
61026;BME280;46911;32.650;-16.902;2023-12-29T02:28:23;101809.72;;;16.60;42.40
61026;BME280;46911;32.650;-16.902;2023-12-29T02:30:45;101817.91;;;16.58;42.23
61026;BME280;46911;32.650;-16.902;2023-12-29T02:32:47;101821.81;;;16.54;42.07
61026;BME280;46911;32.650;-16.902;2023-12-29T02:34:53;101817.88;;;16.47;43.27
61026;BME280;46911;32.650;-16.902;2023-12-29T02:36:56;101809.78;;;16.47;44.41
61026;BME280;46911;32.650;-16.902;2023-12-29T02:38:58;101806.34;;;16.45;44.95
61026;BME280;46911;32.650;-16.902;2023-12-29T02:41:01;101820.31;;;16.50;44.77
61026;BME280;46911;32.650;-16.902;2023-12-29T02:43:08;101820.69;;;16.45;44.95
61026;BME280;46911;32.650;-16.902;2023-12-29T02:45:11;101810.50;;;16.37;45.01
61026;BME280;46911;32.650;-16.902;2023-12-29T02:47:15;101824.34;;;16.44;44.83
61026;BME280;46911;32.650;-16.902;2023-12-29T02:49:17;101827.28;;;16.41;44.20
61026;BME280;46911;32.650;-16.902;2023-12-29T02:51:20;101813.94;;;16.39;43.71
61026;BME280;46911;32.650;-16.902;2023-12-29T02:53:24;101828.13;;;16.42;43.50
61026;BME280;46911;32.650;-16.902;2023-12-29T02:55:27;101821.38;;;16.36;43.45
61026;BME280;46911;32.650;-16.902;2023-12-29T02:57:28;101829.22;;;16.39;44.39
61026;BME280;46911;32.650;-16.902;2023-12-29T02:59:29;101827.59;;;16.36;45.01
61026;BME280;46911;32.650;-16.902;2023-12-29T03:01:32;101829.47;;;16.36;44.99
61026;BME280;46911;32.650;-16.902;2023-12-29T03:03:34;101809.44;;;16.27;44.72
61026;BME280;46911;32.650;-16.902;2023-12-29T03:05:35;101825.88;;;16.35;44.90
61026;BME280;46911;32.650;-16.902;2023-12-29T03:07:40;101830.19;;;16.38;44.83
61026;BME280;46911;32.650;-16.902;2023-12-29T03:09:41;101828.69;;;16.34;44.87
61026;BME280;46911;32.650;-16.902;2023-12-29T03:11:42;101826.66;;;16.37;44.68
61026;BME280;46911;32.650;-16.902;2023-12-29T03:13:43;101824.91;;;16.36;45.39
61026;BME280;46911;32.650;-16.902;2023-12-29T03:15:46;101823.84;;;16.39;45.68
61026;BME280;46911;32.650;-16.902;2023-12-29T03:17:47;101826.19;;;16.44;46.06
61026;BME280;46911;32.650;-16.902;2023-12-29T03:19:49;101833.78;;;16.50;46.33
61026;BME280;46911;32.650;-16.902;2023-12-29T03:21:50;101824.28;;;16.57;46.24
61026;BME280;46911;32.650;-16.902;2023-12-29T03:23:53;101821.88;;;16.65;46.28
61026;BME280;46911;32.650;-16.902;2023-12-29T03:25:54;101819.31;;;16.75;47.03
61026;BME280;46911;32.650;-16.902;2023-12-29T03:27:55;101823.75;;;16.76;47.10
61026;BME280;46911;32.650;-16.902;2023-12-29T03:29:56;101830.03;;;16.88;48.27
61026;BME280;46911;32.650;-16.902;2023-12-29T03:31:59;101829.94;;;16.89;48.35
61026;BME280;46911;32.650;-16.902;2023-12-29T03:34:00;101831.53;;;16.92;48.66
61026;BME280;46911;32.650;-16.902;2023-12-29T03:36:04;101828.38;;;16.98;49.43
61026;BME280;46911;32.650;-16.902;2023-12-29T03:38:08;101840.25;;;17.07;49.74
61026;BME280;46911;32.650;-16.902;2023-12-29T03:40:10;101849.56;;;17.14;49.27
61026;BME280;46911;32.650;-16.902;2023-12-29T03:42:13;101847.38;;;17.19;48.83
61026;BME280;46911;32.650;-16.902;2023-12-29T03:44:14;101831.22;;;17.19;47.99
61026;BME280;46911;32.650;-16.902;2023-12-29T03:46:20;101850.75;;;17.34;47.73
61026;BME280;46911;32.650;-16.902;2023-12-29T03:48:21;101854.66;;;17.42;47.74
61026;BME280;46911;32.650;-16.902;2023-12-29T03:50:22;101856.97;;;17.46;47.53
61026;BME280;46911;32.650;-16.902;2023-12-29T03:52:23;101831.34;;;17.40;47.61
61026;BME280;46911;32.650;-16.902;2023-12-29T03:54:24;101838.97;;;17.47;47.30
61026;BME280;46911;32.650;-16.902;2023-12-29T03:56:26;101834.06;;;17.52;47.02
61026;BME280;46911;32.650;-16.902;2023-12-29T03:58:27;101848.78;;;17.59;47.11
61026;BME280;46911;32.650;-16.902;2023-12-29T04:00:28;101843.38;;;17.59;47.13
61026;BME280;46911;32.650;-16.902;2023-12-29T04:02:29;101829.41;;;17.54;47.03
61026;BME280;46911;32.650;-16.902;2023-12-29T04:04:38;101819.97;;;17.48;47.48
61026;BME280;46911;32.650;-16.902;2023-12-29T04:06:39;101826.06;;;17.50;48.00
61026;BME280;46911;32.650;-16.902;2023-12-29T04:08:40;101823.00;;;17.44;48.95
61026;BME280;46911;32.650;-16.902;2023-12-29T04:10:44;101807.81;;;17.31;49.17
61026;BME280;46911;32.650;-16.902;2023-12-29T04:12:45;101803.41;;;17.30;49.90
61026;BME280;46911;32.650;-16.902;2023-12-29T04:14:46;101810.75;;;17.28;50.75
61026;BME280;46911;32.650;-16.902;2023-12-29T04:16:47;101812.22;;;17.21;50.31
61026;BME280;46911;32.650;-16.902;2023-12-29T04:18:48;101826.56;;;17.33;49.28
61026;BME280;46911;32.650;-16.902;2023-12-29T04:20:51;101820.56;;;17.29;49.24
61026;BME280;46911;32.650;-16.902;2023-12-29T04:22:52;101805.00;;;17.21;48.90
61026;BME280;46911;32.650;-16.902;2023-12-29T04:24:56;101808.78;;;17.30;48.71
61026;BME280;46911;32.650;-16.902;2023-12-29T04:26:57;101795.81;;;17.24;48.65
61026;BME280;46911;32.650;-16.902;2023-12-29T04:29:00;101787.72;;;17.24;48.25
61026;BME280;46911;32.650;-16.902;2023-12-29T04:31:06;101811.75;;;17.38;47.59
61026;BME280;46911;32.650;-16.902;2023-12-29T04:33:13;101806.81;;;17.44;47.10
61026;BME280;46911;32.650;-16.902;2023-12-29T04:35:14;101798.50;;;17.47;46.70
61026;BME280;46911;32.650;-16.902;2023-12-29T04:37:19;101804.16;;;17.55;46.02
61026;BME280;46911;32.650;-16.902;2023-12-29T04:39:23;101797.03;;;17.54;44.96
61026;BME280;46911;32.650;-16.902;2023-12-29T04:41:26;101789.69;;;17.56;44.89
61026;BME280;46911;32.650;-16.902;2023-12-29T04:43:29;101788.19;;;17.63;44.73
61026;BME280;46911;32.650;-16.902;2023-12-29T04:45:30;101779.72;;;17.56;45.22
61026;BME280;46911;32.650;-16.902;2023-12-29T04:47:31;101793.47;;;17.65;45.07
61026;BME280;46911;32.650;-16.902;2023-12-29T04:49:37;101786.59;;;17.61;44.85
61026;BME280;46911;32.650;-16.902;2023-12-29T04:51:41;101756.59;;;17.43;44.46
61026;BME280;46911;32.650;-16.902;2023-12-29T04:53:42;101770.56;;;17.48;44.33
61026;BME280;46911;32.650;-16.902;2023-12-29T04:55:45;101786.50;;;17.51;44.17
61026;BME280;46911;32.650;-16.902;2023-12-29T04:57:46;101790.53;;;17.45;44.12
61026;BME280;46911;32.650;-16.902;2023-12-29T04:59:47;101792.38;;;17.45;43.81
61026;BME280;46911;32.650;-16.902;2023-12-29T05:01:48;101792.38;;;17.45;43.79
61026;BME280;46911;32.650;-16.902;2023-12-29T05:03:52;101782.69;;;17.42;44.09
61026;BME280;46911;32.650;-16.902;2023-12-29T05:05:53;101774.22;;;17.35;44.26
61026;BME280;46911;32.650;-16.902;2023-12-29T05:07:54;101791.88;;;17.51;44.87
61026;BME280;46911;32.650;-16.902;2023-12-29T05:09:59;101788.44;;;17.49;44.57
61026;BME280;46911;32.650;-16.902;2023-12-29T05:12:02;101786.63;;;17.49;44.86
61026;BME280;46911;32.650;-16.902;2023-12-29T05:14:03;101772.63;;;17.44;44.15
61026;BME280;46911;32.650;-16.902;2023-12-29T05:16:05;101769.19;;;17.42;44.02
61026;BME280;46911;32.650;-16.902;2023-12-29T05:18:12;101778.78;;;17.35;44.25
61026;BME280;46911;32.650;-16.902;2023-12-29T05:20:13;101771.16;;;17.29;44.27
61026;BME280;46911;32.650;-16.902;2023-12-29T05:22:14;101769.69;;;17.24;44.53
61026;BME280;46911;32.650;-16.902;2023-12-29T05:24:17;101776.31;;;17.20;44.82
61026;BME280;46911;32.650;-16.902;2023-12-29T05:26:21;101771.53;;;17.13;45.16
61026;BME280;46911;32.650;-16.902;2023-12-29T05:28:22;101771.28;;;17.04;45.71
61026;BME280;46911;32.650;-16.902;2023-12-29T05:30:23;101772.53;;;17.12;47.50
61026;BME280;46911;32.650;-16.902;2023-12-29T05:32:26;101774.72;;;17.18;47.27
61026;BME280;46911;32.650;-16.902;2023-12-29T05:34:27;101763.22;;;17.16;46.66
61026;BME280;46911;32.650;-16.902;2023-12-29T05:36:30;101762.47;;;17.14;46.59
61026;BME280;46911;32.650;-16.902;2023-12-29T05:38:37;101765.28;;;17.23;46.43
61026;BME280;46911;32.650;-16.902;2023-12-29T05:40:41;101756.47;;;17.21;46.07
61026;BME280;46911;32.650;-16.902;2023-12-29T05:42:45;101762.22;;;17.28;45.57
61026;BME280;46911;32.650;-16.902;2023-12-29T05:44:46;101739.28;;;17.11;45.42
61026;BME280;46911;32.650;-16.902;2023-12-29T05:46:55;101768.25;;;17.32;45.40
61026;BME280;46911;32.650;-16.902;2023-12-29T05:48:59;101771.16;;;17.29;45.63
61026;BME280;46911;32.650;-16.902;2023-12-29T05:51:13;101768.59;;;17.27;46.03
61026;BME280;46911;32.650;-16.902;2023-12-29T05:53:14;101766.78;;;17.28;46.39
61026;BME280;46911;32.650;-16.902;2023-12-29T05:55:18;101760.75;;;17.24;46.86
61026;BME280;46911;32.650;-16.902;2023-12-29T05:57:19;101764.44;;;17.23;46.99
61026;BME280;46911;32.650;-16.902;2023-12-29T05:59:20;101760.63;;;17.26;46.60
61026;BME280;46911;32.650;-16.902;2023-12-29T06:01:21;101767.97;;;17.23;46.69
61026;BME280;46911;32.650;-16.902;2023-12-29T06:03:22;101763.44;;;17.24;46.87
61026;BME280;46911;32.650;-16.902;2023-12-29T06:05:23;101727.44;;;17.02;47.01
61026;BME280;46911;32.650;-16.902;2023-12-29T06:07:24;101762.69;;;17.22;47.43
61026;BME280;46911;32.650;-16.902;2023-12-29T06:09:24;101760.88;;;17.22;47.49
61026;BME280;46911;32.650;-16.902;2023-12-29T06:11:25;101744.34;;;17.16;47.65
61026;BME280;46911;32.650;-16.902;2023-12-29T06:13:27;101762.47;;;17.25;48.04
61026;BME280;46911;32.650;-16.902;2023-12-29T06:15:31;101773.75;;;17.19;48.52
61026;BME280;46911;32.650;-16.902;2023-12-29T06:17:34;101779.00;;;17.20;49.16
61026;BME280;46911;32.650;-16.902;2023-12-29T06:19:36;101784.16;;;17.23;49.57
61026;BME280;46911;32.650;-16.902;2023-12-29T06:21:43;101787.59;;;17.26;49.71
61026;BME280;46911;32.650;-16.902;2023-12-29T06:23:44;101789.19;;;17.28;49.92
61026;BME280;46911;32.650;-16.902;2023-12-29T06:25:48;101776.69;;;17.27;49.90
61026;BME280;46911;32.650;-16.902;2023-12-29T06:27:49;101786.38;;;17.41;50.29
61026;BME280;46911;32.650;-16.902;2023-12-29T06:29:55;101777.91;;;17.46;50.11
61026;BME280;46911;32.650;-16.902;2023-12-29T06:31:56;101792.47;;;17.66;49.62
61026;BME280;46911;32.650;-16.902;2023-12-29T06:33:57;101792.13;;;17.70;49.04
61026;BME280;46911;32.650;-16.902;2023-12-29T06:36:01;101796.75;;;17.80;49.38
61026;BME280;46911;32.650;-16.902;2023-12-29T06:38:02;101783.72;;;17.85;49.04
61026;BME280;46911;32.650;-16.902;2023-12-29T06:40:04;101795.53;;;17.95;49.14
61026;BME280;46911;32.650;-16.902;2023-12-29T06:42:09;101799.69;;;17.99;49.37
61026;BME280;46911;32.650;-16.902;2023-12-29T06:44:12;101801.28;;;18.02;49.57
61026;BME280;46911;32.650;-16.902;2023-12-29T06:46:13;101798.59;;;18.02;49.97
61026;BME280;46911;32.650;-16.902;2023-12-29T06:48:14;101776.78;;;17.94;50.66
61026;BME280;46911;32.650;-16.902;2023-12-29T06:50:17;101794.03;;;18.02;52.03
61026;BME280;46911;32.650;-16.902;2023-12-29T06:52:18;101799.56;;;18.01;52.96
61026;BME280;46911;32.650;-16.902;2023-12-29T06:54:19;101801.53;;;17.99;54.20
61026;BME280;46911;32.650;-16.902;2023-12-29T06:56:20;101794.03;;;17.91;57.48
61026;BME280;46911;32.650;-16.902;2023-12-29T06:58:24;101807.78;;;17.99;58.40
61026;BME280;46911;32.650;-16.902;2023-12-29T07:00:27;101784.47;;;17.87;59.86
61026;BME280;46911;32.650;-16.902;2023-12-29T07:02:34;101799.44;;;17.91;60.07
61026;BME280;46911;32.650;-16.902;2023-12-29T07:04:41;101800.28;;;17.91;60.10
61026;BME280;46911;32.650;-16.902;2023-12-29T07:06:42;101781.78;;;17.87;59.54
61026;BME280;46911;32.650;-16.902;2023-12-29T07:08:46;101772.59;;;17.78;59.73
61026;BME280;46911;32.650;-16.902;2023-12-29T07:10:47;101805.34;;;17.96;60.57
61026;BME280;46911;32.650;-16.902;2023-12-29T07:12:50;101814.69;;;17.92;60.53
61026;BME280;46911;32.650;-16.902;2023-12-29T07:14:54;101804.09;;;17.89;60.42
61026;BME280;46911;32.650;-16.902;2023-12-29T07:16:55;101809.03;;;17.84;60.54
61026;BME280;46911;32.650;-16.902;2023-12-29T07:18:58;101799.44;;;17.80;60.85
61026;BME280;46911;32.650;-16.902;2023-12-29T07:20:59;101807.09;;;17.74;61.39
61026;BME280;46911;32.650;-16.902;2023-12-29T07:23:03;101797.38;;;17.61;62.29
61026;BME280;46911;32.650;-16.902;2023-12-29T07:25:04;101814.81;;;17.56;62.90
61026;BME280;46911;32.650;-16.902;2023-12-29T07:27:10;101821.31;;;17.54;63.32
61026;BME280;46911;32.650;-16.902;2023-12-29T07:29:16;101817.41;;;17.47;63.65
61026;BME280;46911;32.650;-16.902;2023-12-29T07:31:19;101822.41;;;17.40;64.11
61026;BME280;46911;32.650;-16.902;2023-12-29T07:33:22;101815.06;;;17.31;65.49
61026;BME280;46911;32.650;-16.902;2023-12-29T07:35:24;101824.88;;;17.32;66.45
61026;BME280;46911;32.650;-16.902;2023-12-29T07:37:25;101831.50;;;17.28;66.95
61026;BME280;46911;32.650;-16.902;2023-12-29T07:39:28;101820.06;;;17.24;67.23
61026;BME280;46911;32.650;-16.902;2023-12-29T07:41:31;101823.63;;;17.24;67.74
61026;BME280;46911;32.650;-16.902;2023-12-29T07:43:32;101815.78;;;17.33;68.35
61026;BME280;46911;32.650;-16.902;2023-12-29T07:45:36;101826.97;;;17.51;70.12
61026;BME280;46911;32.650;-16.902;2023-12-29T07:47:37;101824.00;;;17.54;70.13
61026;BME280;46911;32.650;-16.902;2023-12-29T07:49:41;101811.13;;;17.57;70.39
61026;BME280;46911;32.650;-16.902;2023-12-29T07:51:46;101824.59;;;17.69;70.10
61026;BME280;46911;32.650;-16.902;2023-12-29T07:53:47;101829.91;;;17.70;70.08
61026;BME280;46911;32.650;-16.902;2023-12-29T07:55:52;101823.88;;;17.67;70.64
61026;BME280;46911;32.650;-16.902;2023-12-29T07:57:54;101818.97;;;17.72;71.21
61026;BME280;46911;32.650;-16.902;2023-12-29T07:59:55;101820.09;;;17.69;71.39
61026;BME280;46911;32.650;-16.902;2023-12-29T08:01:56;101825.47;;;17.69;72.50
61026;BME280;46911;32.650;-16.902;2023-12-29T08:04:01;101823.00;;;17.66;73.10
61026;BME280;46911;32.650;-16.902;2023-12-29T08:06:04;101809.66;;;17.53;73.17
61026;BME280;46911;32.650;-16.902;2023-12-29T08:08:06;101822.91;;;17.56;73.57
61026;BME280;46911;32.650;-16.902;2023-12-29T08:10:07;101821.31;;;17.54;74.07
61026;BME280;46911;32.650;-16.902;2023-12-29T08:12:10;101822.91;;;17.45;74.40
61026;BME280;46911;32.650;-16.902;2023-12-29T08:14:16;101822.66;;;17.48;74.75
61026;BME280;46911;32.650;-16.902;2023-12-29T08:16:17;101814.31;;;17.40;75.37
61026;BME280;46911;32.650;-16.902;2023-12-29T08:18:21;101831.84;;;17.46;75.81
61026;BME280;46911;32.650;-16.902;2023-12-29T08:20:25;101821.53;;;17.39;76.27
61026;BME280;46911;32.650;-16.902;2023-12-29T08:22:29;101834.41;;;17.47;76.94
61026;BME280;46911;32.650;-16.902;2023-12-29T08:24:35;101813.94;;;17.45;77.40
61026;BME280;46911;32.650;-16.902;2023-12-29T08:26:46;101815.53;;;17.47;77.90
61026;BME280;46911;32.650;-16.902;2023-12-29T08:28:50;101819.22;;;17.57;78.72
61026;BME280;46911;32.650;-16.902;2023-12-29T08:30:50;101825.22;;;17.72;78.75
61026;BME280;46911;32.650;-16.902;2023-12-29T08:32:51;101819.81;;;17.84;78.53
61026;BME280;46911;32.650;-16.902;2023-12-29T08:34:52;101821.41;;;17.98;78.60
61026;BME280;46911;32.650;-16.902;2023-12-29T08:36:55;101805.56;;;18.04;78.71
61026;BME280;46911;32.650;-16.902;2023-12-29T08:38:57;101817.41;;;18.24;78.91
61026;BME280;46911;32.650;-16.902;2023-12-29T08:41:00;101824.63;;;18.35;78.95
61026;BME280;46911;32.650;-16.902;2023-12-29T08:43:01;101817.47;;;18.46;79.35
61026;BME280;46911;32.650;-16.902;2023-12-29T08:45:02;101804.44;;;18.51;79.62
61026;BME280;46911;32.650;-16.902;2023-12-29T08:47:07;101820.34;;;18.65;79.25
61026;BME280;46911;32.650;-16.902;2023-12-29T08:49:14;101828.25;;;18.78;79.34
61026;BME280;46911;32.650;-16.902;2023-12-29T08:51:15;101824.16;;;18.84;78.89
61026;BME280;46911;32.650;-16.902;2023-12-29T08:53:17;101826.97;;;18.94;78.64
61026;BME280;46911;32.650;-16.902;2023-12-29T08:55:20;101822.59;;;19.02;78.59
61026;BME280;46911;32.650;-16.902;2023-12-29T08:57:23;101808.09;;;19.03;78.20
61026;BME280;46911;32.650;-16.902;2023-12-29T08:59:29;101837.97;;;19.23;78.50
61026;BME280;46911;32.650;-16.902;2023-12-29T09:01:30;101841.69;;;19.32;77.90
61026;BME280;46911;32.650;-16.902;2023-12-29T09:03:31;101819.91;;;19.33;77.72
61026;BME280;46911;32.650;-16.902;2023-12-29T09:05:31;101810.97;;;19.33;77.93
61026;BME280;46911;32.650;-16.902;2023-12-29T09:07:32;101836.72;;;19.58;77.84
61026;BME280;46911;32.650;-16.902;2023-12-29T09:09:33;101833.03;;;19.59;77.66
61026;BME280;46911;32.650;-16.902;2023-12-29T09:11:34;101843.59;;;19.72;77.36
61026;BME280;46911;32.650;-16.902;2023-12-29T09:13:35;101848.94;;;19.83;77.03
61026;BME280;46911;32.650;-16.902;2023-12-29T09:15:36;101850.25;;;19.89;76.83
61026;BME280;46911;32.650;-16.902;2023-12-29T09:17:38;101855.97;;;19.96;76.78
61026;BME280;46911;32.650;-16.902;2023-12-29T09:19:41;101842.28;;;19.97;76.60
61026;BME280;46911;32.650;-16.902;2023-12-29T09:21:41;101860.44;;;20.16;76.27
61026;BME280;46911;32.650;-16.902;2023-12-29T09:23:43;101868.28;;;20.29;76.42
61026;BME280;46911;32.650;-16.902;2023-12-29T09:25:46;101875.19;;;20.43;78.22
61026;BME280;46911;32.650;-16.902;2023-12-29T09:27:49;101861.19;;;20.48;78.67
61026;BME280;46911;32.650;-16.902;2023-12-29T09:29:55;101859.75;;;20.53;79.28
61026;BME280;46911;32.650;-16.902;2023-12-29T09:31:58;101869.19;;;20.59;79.85
61026;BME280;46911;32.650;-16.902;2023-12-29T09:34:02;101870.78;;;20.71;80.55
61026;BME280;46911;32.650;-16.902;2023-12-29T09:36:04;101863.34;;;20.64;81.24
61026;BME280;46911;32.650;-16.902;2023-12-29T09:38:05;101874.66;;;20.69;81.26
61026;BME280;46911;32.650;-16.902;2023-12-29T09:40:09;101869.75;;;20.63;81.84
61026;BME280;46911;32.650;-16.902;2023-12-29T09:42:22;101863.06;;;20.57;81.65
61026;BME280;46911;32.650;-16.902;2023-12-29T09:44:30;101879.06;;;20.80;82.00
61026;BME280;46911;32.650;-16.902;2023-12-29T09:46:32;101871.38;;;20.85;81.78
61026;BME280;46911;32.650;-16.902;2023-12-29T09:48:34;101877.38;;;20.88;81.88
61026;BME280;46911;32.650;-16.902;2023-12-29T09:50:37;101870.22;;;20.87;82.04
61026;BME280;46911;32.650;-16.902;2023-12-29T09:52:40;101879.19;;;21.07;81.22
61026;BME280;46911;32.650;-16.902;2023-12-29T09:54:41;101873.31;;;21.12;81.23
61026;BME280;46911;32.650;-16.902;2023-12-29T09:56:49;101864.44;;;21.20;80.68
61026;BME280;46911;32.650;-16.902;2023-12-29T09:58:57;101881.56;;;21.30;80.41
61026;BME280;46911;32.650;-16.902;2023-12-29T10:00:58;101889.66;;;21.50;80.01
61026;BME280;46911;32.650;-16.902;2023-12-29T10:03:00;101878.59;;;21.71;79.25
61026;BME280;46911;32.650;-16.902;2023-12-29T10:05:03;101888.16;;;21.75;78.59
61026;BME280;46911;32.650;-16.902;2023-12-29T10:07:06;101904.53;;;21.93;77.74
61026;BME280;46911;32.650;-16.902;2023-12-29T10:09:11;101892.25;;;21.89;77.82
61026;BME280;46911;32.650;-16.902;2023-12-29T10:11:15;101903.41;;;22.14;77.32
61026;BME280;46911;32.650;-16.902;2023-12-29T10:13:21;101905.47;;;22.30;77.00
61026;BME280;46911;32.650;-16.902;2023-12-29T10:17:39;101910.59;;;22.79;74.11
61026;BME280;46911;32.650;-16.902;2023-12-29T10:19:47;101903.50;;;22.86;73.91
61026;BME280;46911;32.650;-16.902;2023-12-29T10:22:03;101907.22;;;23.03;73.60
61026;BME280;46911;32.650;-16.902;2023-12-29T10:24:12;101915.56;;;23.01;73.21
61026;BME280;46911;32.650;-16.902;2023-12-29T10:26:14;101916.34;;;23.12;72.88
61026;BME280;46911;32.650;-16.902;2023-12-29T10:28:18;101920.53;;;23.24;72.56
61026;BME280;46911;32.650;-16.902;2023-12-29T10:30:24;101918.19;;;23.29;72.28